Time;durP1;ratioP1;P1;durP2;ratioP2;P2;SDS_P1;SDS_P2;PMS_P1;PMS_P2;Temp;Humidity;BMP_temperature;BMP_pressure;BME280_temperature;BME280_humidity;BME280_pressure;Samples;Min_cycle;Max_cycle;Signal;HPM_P1;HPM_P2
2023/01/08 00:00:22;;;;;;;;;;;9.10;99.90;;;;;;5026572;28;982;-78
2023/01/08 00:02:50;;;;;;;;;;;9.10;99.90;;;;;;5028781;28;1142;-76
2023/01/08 00:05:18;;;;;;;;;;;9.10;99.90;;;;;;5025830;28;1447;-77
2023/01/08 00:07:45;;;;;;;;;;;9.00;99.90;;;;;;5028077;28;1604;-76
2023/01/08 00:10:13;;;;;;;;;;;9.10;99.90;;;;;;5023484;28;1892;-76
2023/01/08 00:12:41;;;;;;;;;;;9.10;99.90;;;;;;5025156;28;1076;-76
2023/01/08 00:15:10;;;;;;;;;;;9.10;99.90;;;;;;5026051;28;1983;-77
2023/01/08 00:17:38;;;;;;;;;;;9.10;99.90;;;;;;5021653;28;2047;-77
2023/01/08 00:20:06;;;;;;;;;;;9.30;99.90;;;;;;5023967;28;986;-77
2023/01/08 00:22:34;;;;;;;;;;;9.20;99.90;;;;;;5020046;28;1057;-79
2023/01/08 00:25:01;;;;;;;;;;;9.20;99.90;;;;;;5024051;28;1477;-78
2023/01/08 00:27:29;;;;;;;;;;;9.20;99.90;;;;;;5026203;28;1635;-78
2023/01/08 00:29:57;;;;;;;;;;;9.20;99.90;;;;;;5021955;28;1010;-79
2023/01/08 00:32:25;;;;;;;;;;;9.20;99.90;;;;;;5026759;28;1531;-77
2023/01/08 00:34:55;;;;;;;;;;;9.20;99.90;;;;;;5026191;28;1291;-77
2023/01/08 00:37:22;;;;;;;;;;;9.20;99.90;;;;;;5025924;28;1914;-78
2023/01/08 00:39:50;;;;;;;;;;;9.30;99.90;;;;;;5025290;28;977;-77
2023/01/08 00:42:18;;;;;;;;;;;9.20;99.90;;;;;;5025767;28;981;-77
2023/01/08 00:44:45;;;;;;;;;;;9.30;99.90;;;;;;5026620;28;1296;-79
2023/01/08 00:47:13;;;;;;;;;;;9.20;99.90;;;;;;5027036;28;1016;-77
2023/01/08 00:49:42;;;;;;;;;;;9.20;99.90;;;;;;5022385;28;1377;-77
2023/01/08 00:52:09;;;;;;;;;;;9.20;99.90;;;;;;5019321;28;1172;-76
2023/01/08 00:54:37;;;;;;;;;;;9.20;99.90;;;;;;5022154;28;1288;-78
2023/01/08 00:57:05;;;;;;;;;;;9.20;99.90;;;;;;5022983;28;1883;-76
2023/01/08 00:59:32;;;;;;;;;;;9.20;99.90;;;;;;5024230;28;1052;-77
2023/01/08 01:02:00;;;;;;;;;;;9.20;99.90;;;;;;5016942;28;989;-77
2023/01/08 01:04:28;;;;;;;;;;;9.20;99.90;;;;;;5020997;28;1257;-75
2023/01/08 01:06:57;;;;;;;;;;;9.20;99.90;;;;;;5022106;28;2144;-76
2023/01/08 01:09:24;;;;;;;;;;;9.20;99.90;;;;;;5024503;28;1072;-76
2023/01/08 01:11:52;;;;;;;;;;;9.20;99.90;;;;;;5015035;28;1081;-76
2023/01/08 01:14:20;;;;;;;;;;;9.30;99.90;;;;;;5023832;28;1276;-76
2023/01/08 01:16:47;;;;;;;;;;;9.40;99.90;;;;;;5032204;28;1965;-77
2023/01/08 01:19:16;;;;;;;;;;;9.40;99.90;;;;;;5034771;28;1033;-77
2023/01/08 01:21:44;;;;;;;;;;;9.30;99.90;;;;;;5028179;28;998;-78
2023/01/08 01:24:14;;;;;;;;;;;9.30;99.90;;;;;;5018202;28;1381;-77
2023/01/08 01:26:42;;;;;;;;;;;9.30;99.90;;;;;;5019845;28;1056;-77
2023/01/08 01:29:09;;;;;;;;;;;9.40;99.90;;;;;;5026718;28;1458;-77
2023/01/08 01:31:37;;;;;;;;;;;9.40;99.90;;;;;;5029246;28;981;-78
2023/01/08 01:34:05;;;;;;;;;;;9.50;99.90;;;;;;5027631;28;1503;-77
2023/01/08 01:36:32;;;;;;;;;;;9.50;99.90;;;;;;5024367;28;1910;-76
2023/01/08 01:39:00;;;;;;;;;;;9.50;99.90;;;;;;5024725;28;1045;-76
2023/01/08 01:41:30;;;;;;;;;;;9.50;99.90;;;;;;5025557;28;1032;-77
2023/01/08 01:43:58;;;;;;;;;;;9.50;99.90;;;;;;5024363;28;1362;-77
2023/01/08 01:46:33;;;;;;;;;;;9.50;99.90;;;;;;5019016;28;1284;-76
2023/01/08 01:49:02;;;;;;;;;;;9.60;99.90;;;;;;5026937;28;1519;-76
2023/01/08 01:51:32;;;;;;;;;;;9.60;99.90;;;;;;5026382;28;1141;-77
2023/01/08 01:54:00;;;;;;;;;;;9.60;99.90;;;;;;5024543;28;1300;-76
2023/01/08 01:56:32;;;;;;;;;;;9.70;99.90;;;;;;5030929;28;1910;-77
2023/01/08 01:58:59;;;;;;;;;;;9.60;99.90;;;;;;5027734;28;1124;-78
2023/01/08 02:01:28;;;;;;;;;;;9.60;99.90;;;;;;5027377;28;1045;-77
2023/01/08 02:03:55;;;;;;;;;;;9.60;99.90;;;;;;5021437;28;1311;-79
2023/01/08 02:06:35;;;;;;;;;;;9.60;99.90;;;;;;5020152;28;1052;-77
2023/01/08 02:09:06;;;;;;;;;;;9.70;99.90;;;;;;5022061;28;1592;-78
2023/01/08 02:11:41;;;;;;;;;;;9.70;99.90;;;;;;5022472;28;1678;-78
2023/01/08 02:14:13;;;;;;;;;;;9.70;99.90;;;;;;5030571;28;1350;-77
2023/01/08 02:16:45;;;;;;;;;;;9.70;99.90;;;;;;5031696;28;1906;-77
2023/01/08 02:19:19;;;;;;;;;;;9.70;99.90;;;;;;5026933;28;994;-77
2023/01/08 02:21:53;;;;;;;;;;;9.70;99.90;;;;;;5031030;28;1100;-77
2023/01/08 02:24:28;;;;;;;;;;;9.70;99.90;;;;;;5019053;28;1372;-77
2023/01/08 02:26:59;;;;;;;;;;;9.80;99.90;;;;;;5027177;28;1548;-76
2023/01/08 02:29:28;;;;;;;;;;;9.80;99.90;;;;;;5026370;28;1249;-76
2023/01/08 02:31:56;;;;;;;;;;;9.80;99.90;;;;;;5020142;28;977;-77
2023/01/08 02:34:23;;;;;;;;;;;9.80;99.90;;;;;;5020666;28;1373;-79
2023/01/08 02:36:52;;;;;;;;;;;9.80;99.90;;;;;;5026209;28;1906;-77
2023/01/08 02:39:27;;;;;;;;;;;9.80;99.90;;;;;;5025274;28;1009;-76
2023/01/08 02:42:03;;;;;;;;;;;9.80;99.90;;;;;;5025423;28;985;-77
2023/01/08 02:44:36;;;;;;;;;;;9.80;99.90;;;;;;5028201;28;1363;-77
2023/01/08 02:47:05;;;;;;;;;;;9.70;99.90;;;;;;5025957;28;1509;-78
2023/01/08 02:49:34;;;;;;;;;;;9.70;99.90;;;;;;5026080;28;1034;-77
2023/01/08 02:52:03;;;;;;;;;;;9.70;99.90;;;;;;5018321;28;1109;-76
2023/01/08 02:54:32;;;;;;;;;;;9.60;99.90;;;;;;5019410;28;1255;-77
2023/01/08 02:57:03;;;;;;;;;;;9.50;99.90;;;;;;5027165;28;2147;-77
2023/01/08 02:59:32;;;;;;;;;;;9.50;99.90;;;;;;5024279;28;1077;-79
2023/01/08 03:02:00;;;;;;;;;;;9.50;99.90;;;;;;5018622;28;1025;-79
2023/01/08 03:04:30;;;;;;;;;;;9.60;99.90;;;;;;5028212;28;1709;-79
2023/01/08 03:06:58;;;;;;;;;;;9.60;99.90;;;;;;5026910;28;1941;-79
2023/01/08 03:09:26;;;;;;;;;;;9.60;99.90;;;;;;5028367;28;1156;-80
2023/01/08 03:11:57;;;;;;;;;;;9.60;99.90;;;;;;5026547;28;1018;-77
2023/01/08 03:14:28;;;;;;;;;;;9.60;99.90;;;;;;5026866;28;1264;-77
2023/01/08 03:16:57;;;;;;;;;;;9.70;99.90;;;;;;5024351;28;1982;-78
2023/01/08 03:19:28;;;;;;;;;;;9.70;99.90;;;;;;5027475;28;1020;-77
2023/01/08 03:21:56;;;;;;;;;;;9.70;99.90;;;;;;5025573;28;1056;-76
2023/01/08 03:24:25;;;;;;;;;;;9.60;99.90;;;;;;5025469;28;1284;-77
2023/01/08 03:26:55;;;;;;;;;;;9.60;99.90;;;;;;5042699;28;1337;-77
2023/01/08 03:29:23;;;;;;;;;;;9.60;99.90;;;;;;5027435;28;1151;-79
2023/01/08 03:31:56;;;;;;;;;;;9.60;99.90;;;;;;5020470;28;1113;-78
2023/01/08 03:34:24;;;;;;;;;;;9.50;99.90;;;;;;5024986;28;1514;-76
2023/01/08 03:36:53;;;;;;;;;;;9.40;99.90;;;;;;5030124;28;1910;-78
2023/01/08 03:39:23;;;;;;;;;;;9.40;99.90;;;;;;5027667;28;1215;-78
2023/01/08 03:41:54;;;;;;;;;;;9.30;99.90;;;;;;5024940;28;2052;-78
2023/01/08 03:44:21;;;;;;;;;;;9.30;99.90;;;;;;5030013;28;1327;-78
2023/01/08 03:46:50;;;;;;;;;;;9.20;99.90;;;;;;5024936;28;1274;-76
2023/01/08 03:49:20;;;;;;;;;;;9.20;99.90;;;;;;5018861;28;1179;-84
2023/01/08 03:51:47;;;;;;;;;;;9.10;99.90;;;;;;5025564;28;1049;-83
2023/01/08 03:54:17;;;;;;;;;;;9.20;99.90;;;;;;5024393;28;2135;-85
2023/01/08 03:56:45;;;;;;;;;;;9.30;99.90;;;;;;5026400;28;2104;-78
2023/01/08 03:59:13;;;;;;;;;;;9.30;99.90;;;;;;5021555;28;2063;-78
2023/01/08 04:01:40;;;;;;;;;;;9.40;99.90;;;;;;5022014;28;1608;-75
2023/01/08 04:04:08;;;;;;;;;;;9.40;99.90;;;;;;5027570;28;1284;-79
2023/01/08 04:06:37;;;;;;;;;;;9.40;99.90;;;;;;5025701;28;1808;-78
2023/01/08 04:09:05;;;;;;;;;;;9.50;99.90;;;;;;5031380;28;1710;-80
2023/01/08 04:11:33;;;;;;;;;;;9.50;99.90;;;;;;5035055;28;1069;-80
2023/01/08 04:14:00;;;;;;;;;;;9.50;99.90;;;;;;5032182;28;1363;-79
2023/01/08 04:16:28;;;;;;;;;;;9.60;99.90;;;;;;5031725;28;2135;-78
2023/01/08 04:18:56;;;;;;;;;;;9.60;99.90;;;;;;5031652;28;1988;-77
2023/01/08 04:21:23;;;;;;;;;;;9.70;99.90;;;;;;5018742;28;1041;-77
2023/01/08 04:23:52;;;;;;;;;;;9.60;99.90;;;;;;5027006;28;1256;-75
2023/01/08 04:26:20;;;;;;;;;;;9.70;99.90;;;;;;5026332;28;1088;-79
2023/01/08 04:28:47;;;;;;;;;;;9.60;99.90;;;;;;5024570;28;2143;-83
2023/01/08 04:31:15;;;;;;;;;;;9.60;99.90;;;;;;5022500;28;2082;-82
2023/01/08 04:33:43;;;;;;;;;;;9.70;99.90;;;;;;5024074;28;1906;-75
2023/01/08 04:36:10;;;;;;;;;;;9.70;99.90;;;;;;5021920;28;1096;-77
2023/01/08 04:38:38;;;;;;;;;;;9.80;99.90;;;;;;5028174;28;1910;-79
2023/01/08 04:41:07;;;;;;;;;;;9.70;99.90;;;;;;5022539;28;1008;-77
2023/01/08 04:43:35;;;;;;;;;;;9.70;99.90;;;;;;5029105;28;1366;-76
2023/01/08 04:46:06;;;;;;;;;;;9.60;99.90;;;;;;5025367;28;2080;-77
2023/01/08 04:48:34;;;;;;;;;;;9.70;99.90;;;;;;5018959;28;1118;-76
2023/01/08 04:51:03;;;;;;;;;;;9.80;99.90;;;;;;5017715;28;1646;-77
2023/01/08 04:53:34;;;;;;;;;;;9.80;99.90;;;;;;5025527;28;1306;-79
2023/01/08 04:56:03;;;;;;;;;;;9.80;99.90;;;;;;5027899;28;1223;-78
2023/01/08 04:58:32;;;;;;;;;;;9.80;99.90;;;;;;5024334;28;1910;-77
2023/01/08 05:01:00;;;;;;;;;;;9.80;99.90;;;;;;5024832;28;1067;-78
2023/01/08 05:03:27;;;;;;;;;;;9.80;99.90;;;;;;5030819;28;2208;-76
2023/01/08 05:05:55;;;;;;;;;;;9.70;99.90;;;;;;5023674;28;1008;-76
2023/01/08 05:08:23;;;;;;;;;;;9.80;99.90;;;;;;5023305;28;1628;-79
2023/01/08 05:10:51;;;;;;;;;;;9.80;99.90;;;;;;5023228;28;1104;-80
2023/01/08 05:13:18;;;;;;;;;;;9.80;99.90;;;;;;5015248;28;1009;-78
2023/01/08 05:15:47;;;;;;;;;;;9.80;99.90;;;;;;5024798;28;1401;-79
2023/01/08 05:18:15;;;;;;;;;;;9.80;99.90;;;;;;5024681;28;1978;-76
2023/01/08 05:20:42;;;;;;;;;;;9.80;99.90;;;;;;5025279;28;1089;-76
2023/01/08 05:23:10;;;;;;;;;;;9.80;99.90;;;;;;5018058;28;1097;-76
2023/01/08 05:25:38;;;;;;;;;;;9.70;99.90;;;;;;5025385;28;1381;-79
2023/01/08 05:28:05;;;;;;;;;;;9.70;99.90;;;;;;5026947;28;1988;-77
2023/01/08 05:30:33;;;;;;;;;;;9.80;99.90;;;;;;5028091;28;1044;-77
2023/01/08 05:33:02;;;;;;;;;;;9.70;99.90;;;;;;5025002;28;1113;-77
2023/01/08 05:35:30;;;;;;;;;;;9.80;99.90;;;;;;5031798;28;1453;-76
2023/01/08 05:37:59;;;;;;;;;;;9.70;99.90;;;;;;5045517;28;1899;-77
2023/01/08 05:40:26;;;;;;;;;;;9.70;99.90;;;;;;5029533;28;1906;-76
2023/01/08 05:42:54;;;;;;;;;;;9.80;99.90;;;;;;5027104;28;1006;-76
2023/01/08 05:45:21;;;;;;;;;;;9.80;99.90;;;;;;5029580;28;1251;-77
2023/01/08 05:47:49;;;;;;;;;;;9.80;99.90;;;;;;5021425;28;1056;-77
2023/01/08 05:50:18;;;;;;;;;;;9.70;99.90;;;;;;5020102;28;1081;-76
2023/01/08 05:52:46;;;;;;;;;;;9.70;99.90;;;;;;5025537;28;1711;-76
2023/01/08 05:55:13;;;;;;;;;;;9.70;99.90;;;;;;5029737;28;1363;-77
2023/01/08 05:57:41;;;;;;;;;;;9.70;99.90;;;;;;5021735;28;1694;-76
2023/01/08 06:00:10;;;;;;;;;;;9.80;99.90;;;;;;5032997;28;1910;-77
2023/01/08 06:02:37;;;;;;;;;;;9.70;99.90;;;;;;5024353;28;1175;-76
2023/01/08 06:05:05;;;;;;;;;;;9.80;99.90;;;;;;5027076;28;1266;-75
2023/01/08 06:07:34;;;;;;;;;;;9.70;99.90;;;;;;5024538;28;1137;-76
2023/01/08 06:10:02;;;;;;;;;;;9.70;99.90;;;;;;5026504;28;979;-76
2023/01/08 06:12:30;;;;;;;;;;;9.70;99.90;;;;;;5030175;28;1005;-77
2023/01/08 06:14:57;;;;;;;;;;;9.70;99.90;;;;;;5020693;28;1560;-76
2023/01/08 06:17:25;;;;;;;;;;;9.70;99.90;;;;;;5025263;28;1579;-76
2023/01/08 06:19:52;;;;;;;;;;;9.60;99.90;;;;;;5021637;28;1910;-78
2023/01/08 06:22:20;;;;;;;;;;;9.70;99.90;;;;;;5029971;28;1058;-78
2023/01/08 06:24:49;;;;;;;;;;;9.60;99.90;;;;;;5033579;28;1280;-77
2023/01/08 06:27:17;;;;;;;;;;;9.60;99.90;;;;;;5028958;28;1520;-78
2023/01/08 06:29:44;;;;;;;;;;;9.60;99.90;;;;;;5028584;28;1064;-77
2023/01/08 06:32:12;;;;;;;;;;;9.50;99.90;;;;;;5024411;28;1570;-76
2023/01/08 06:34:40;;;;;;;;;;;9.50;99.90;;;;;;5026847;28;1322;-76
2023/01/08 06:37:08;;;;;;;;;;;9.60;99.90;;;;;;5032793;28;985;-77
2023/01/08 06:39:35;;;;;;;;;;;9.50;99.90;;;;;;5029786;28;1924;-75
2023/01/08 06:42:04;;;;;;;;;;;9.50;99.90;;;;;;5028533;28;1030;-76
2023/01/08 06:44:32;;;;;;;;;;;9.50;99.90;;;;;;5021112;28;1356;-75
2023/01/08 06:47:00;;;;;;;;;;;9.50;99.90;;;;;;5026950;28;1084;-75
2023/01/08 06:49:27;;;;;;;;;;;9.50;99.90;;;;;;5033414;28;1088;-76
2023/01/08 06:51:56;;;;;;;;;;;9.60;99.90;;;;;;5025619;28;1006;-76
2023/01/08 06:54:23;;;;;;;;;;;9.60;99.90;;;;;;5018224;28;1547;-75
2023/01/08 06:56:51;;;;;;;;;;;9.50;99.90;;;;;;5031878;28;1144;-78
2023/01/08 06:59:22;;;;;;;;;;;9.50;99.90;;;;;;5033116;28;1906;-76
2023/01/08 07:01:50;;;;;;;;;;;9.50;99.90;;;;;;5020239;28;1050;-76
2023/01/08 07:04:18;;;;;;;;;;;9.40;99.90;;;;;;5029322;28;1269;-79
2023/01/08 07:06:45;;;;;;;;;;;9.40;99.90;;;;;;5026950;28;1668;-80
2023/01/08 07:09:14;;;;;;;;;;;9.50;99.90;;;;;;5024943;28;1403;-85
2023/01/08 07:11:42;;;;;;;;;;;9.40;99.90;;;;;;5032915;28;2144;-86
2023/01/08 07:14:10;;;;;;;;;;;9.40;99.90;;;;;;5028271;28;1997;-76
2023/01/08 07:16:39;;;;;;;;;;;9.40;99.90;;;;;;5025442;28;2043;-78
2023/01/08 07:19:08;;;;;;;;;;;9.40;99.90;;;;;;5026759;28;1926;-78
2023/01/08 07:21:35;;;;;;;;;;;9.30;99.90;;;;;;5026927;28;1052;-79
2023/01/08 07:24:04;;;;;;;;;;;9.40;99.90;;;;;;5038395;28;1980;-77
2023/01/08 07:26:31;;;;;;;;;;;9.40;99.90;;;;;;5043709;28;1087;-77
2023/01/08 07:28:59;;;;;;;;;;;9.40;99.90;;;;;;5046700;28;1922;-77
2023/01/08 07:31:27;;;;;;;;;;;9.40;99.90;;;;;;5046083;28;1934;-77
2023/01/08 07:33:56;;;;;;;;;;;9.40;99.90;;;;;;5042451;28;1258;-76
2023/01/08 07:36:23;;;;;;;;;;;9.40;99.90;;;;;;5040273;28;1808;-77
2023/01/08 07:38:51;;;;;;;;;;;9.40;99.90;;;;;;5040681;28;1213;-76
2023/01/08 07:41:19;;;;;;;;;;;9.40;99.90;;;;;;5038611;28;1999;-77
2023/01/08 07:43:46;;;;;;;;;;;9.40;99.90;;;;;;5039962;28;1519;-76
2023/01/08 07:46:14;;;;;;;;;;;9.40;99.90;;;;;;5048160;28;1848;-76
2023/01/08 07:48:42;;;;;;;;;;;9.40;99.90;;;;;;5046851;28;1076;-78
2023/01/08 07:51:11;;;;;;;;;;;9.40;99.90;;;;;;5032713;28;1170;-77
2023/01/08 07:53:38;;;;;;;;;;;9.40;99.90;;;;;;5028274;28;1302;-77
2023/01/08 07:56:07;;;;;;;;;;;9.40;99.90;;;;;;5039760;28;1867;-78
2023/01/08 07:58:35;;;;;;;;;;;9.40;99.90;;;;;;5032459;28;1959;-77
2023/01/08 08:01:03;;;;;;;;;;;9.30;99.90;;;;;;5033837;28;1985;-78
2023/01/08 08:03:30;;;;;;;;;;;9.40;99.90;;;;;;5023904;28;1303;-76
2023/01/08 08:05:59;;;;;;;;;;;9.40;99.90;;;;;;5033261;28;1028;-76
2023/01/08 08:08:28;;;;;;;;;;;9.40;99.90;;;;;;5025860;28;990;-76
2023/01/08 08:10:56;;;;;;;;;;;9.50;99.90;;;;;;5026471;28;1161;-78
2023/01/08 08:13:23;;;;;;;;;;;9.60;99.90;;;;;;5035926;28;1582;-76
2023/01/08 08:15:51;;;;;;;;;;;9.50;99.90;;;;;;5034295;28;1676;-77
2023/01/08 08:18:19;;;;;;;;;;;9.60;99.90;;;;;;5033043;28;2061;-77
2023/01/08 08:20:50;;;;;;;;;;;9.50;99.90;;;;;;5023698;28;1902;-76
2023/01/08 08:23:18;;;;;;;;;;;9.50;99.90;;;;;;5031653;28;1125;-77
2023/01/08 08:25:47;;;;;;;;;;;9.40;99.90;;;;;;5036601;28;2002;-77
2023/01/08 08:28:15;;;;;;;;;;;9.40;99.90;;;;;;5029695;28;1065;-77
2023/01/08 08:30:42;;;;;;;;;;;9.50;99.90;;;;;;5045482;28;1052;-77
2023/01/08 08:33:11;;;;;;;;;;;9.40;99.90;;;;;;5048031;28;1045;-79
2023/01/08 08:35:39;;;;;;;;;;;9.50;99.90;;;;;;5040478;28;1387;-78
2023/01/08 08:38:07;;;;;;;;;;;9.50;99.90;;;;;;5032835;28;1104;-78
2023/01/08 08:40:35;;;;;;;;;;;9.50;99.90;;;;;;5039168;28;1911;-79
2023/01/08 08:43:05;;;;;;;;;;;9.50;99.90;;;;;;5044560;28;1623;-79
2023/01/08 08:45:36;;;;;;;;;;;9.40;99.90;;;;;;5032990;28;1311;-78
2023/01/08 08:48:05;;;;;;;;;;;9.50;99.90;;;;;;5043697;28;1405;-79
2023/01/08 08:50:33;;;;;;;;;;;9.40;99.90;;;;;;5042098;28;1092;-77
2023/01/08 08:53:01;;;;;;;;;;;9.50;99.90;;;;;;5036747;28;1827;-77
2023/01/08 08:55:29;;;;;;;;;;;9.40;99.90;;;;;;5029142;28;2029;-77
2023/01/08 08:58:02;;;;;;;;;;;9.50;99.90;;;;;;5036967;28;2036;-77
2023/01/08 09:00:33;;;;;;;;;;;9.60;99.90;;;;;;5038378;28;1890;-78
2023/01/08 09:03:01;;;;;;;;;;;9.60;99.90;;;;;;5035536;28;1530;-79
2023/01/08 09:05:30;;;;;;;;;;;9.60;99.90;;;;;;5037167;28;1697;-78
2023/01/08 09:07:57;;;;;;;;;;;9.60;99.90;;;;;;5031952;28;1540;-78
2023/01/08 09:10:25;;;;;;;;;;;9.60;99.90;;;;;;5029927;28;1740;-78
2023/01/08 09:12:53;;;;;;;;;;;9.60;99.90;;;;;;5030179;28;1152;-78
2023/01/08 09:15:21;;;;;;;;;;;9.70;99.90;;;;;;5024897;28;1363;-78
2023/01/08 09:17:54;;;;;;;;;;;9.70;99.90;;;;;;5026719;28;1512;-78
2023/01/08 09:20:21;;;;;;;;;;;9.80;99.90;;;;;;5025378;28;1906;-78
2023/01/08 09:22:49;;;;;;;;;;;9.70;99.90;;;;;;5028749;28;1671;-75
2023/01/08 09:25:17;;;;;;;;;;;9.90;99.90;;;;;;5028988;28;1324;-76
2023/01/08 09:27:45;;;;;;;;;;;9.80;99.90;;;;;;5033925;28;1119;-77
2023/01/08 09:30:13;;;;;;;;;;;9.80;99.90;;;;;;5034875;28;1013;-79
2023/01/08 09:32:40;;;;;;;;;;;9.90;99.90;;;;;;5033611;28;1086;-78
2023/01/08 09:35:10;;;;;;;;;;;9.80;99.90;;;;;;5031377;28;1376;-78
2023/01/08 09:37:37;;;;;;;;;;;9.90;99.90;;;;;;5029155;28;1017;-78
2023/01/08 09:40:05;;;;;;;;;;;9.90;99.90;;;;;;5023671;28;1902;-75
2023/01/08 09:42:34;;;;;;;;;;;9.90;99.90;;;;;;5031323;28;1044;-75
2023/01/08 09:45:02;;;;;;;;;;;9.90;99.90;;;;;;5026715;28;1409;-75
2023/01/08 09:47:32;;;;;;;;;;;10.00;99.90;;;;;;5019447;28;1680;-75
2023/01/08 09:50:01;;;;;;;;;;;10.00;99.90;;;;;;5019381;28;1161;-77
2023/01/08 09:52:37;;;;;;;;;;;10.10;99.90;;;;;;5024809;28;985;-76
2023/01/08 09:55:10;;;;;;;;;;;10.00;99.90;;;;;;5027763;28;1838;-76
2023/01/08 09:57:39;;;;;;;;;;;10.00;99.90;;;;;;5037505;28;1337;-78
2023/01/08 10:00:11;;;;;;;;;;;10.10;99.90;;;;;;5019580;28;1571;-76
2023/01/08 10:02:39;;;;;;;;;;;10.20;99.90;;;;;;5022372;28;1128;-77
2023/01/08 10:05:12;;;;;;;;;;;10.20;99.90;;;;;;5021706;28;1368;-76
2023/01/08 10:07:41;;;;;;;;;;;10.20;99.90;;;;;;5026462;28;1651;-78
2023/01/08 10:10:16;;;;;;;;;;;10.20;99.90;;;;;;5027422;28;1037;-77
2023/01/08 10:12:44;;;;;;;;;;;10.30;99.90;;;;;;5029272;28;1599;-79
2023/01/08 10:15:14;;;;;;;;;;;10.30;99.90;;;;;;5034604;28;1587;-80
2023/01/08 10:17:43;;;;;;;;;;;10.20;99.90;;;;;;5029054;28;1101;-78
2023/01/08 10:20:12;;;;;;;;;;;10.50;99.90;;;;;;5023568;28;1080;-77
2023/01/08 10:22:41;;;;;;;;;;;10.20;99.90;;;;;;5023929;28;1958;-77
2023/01/08 10:25:11;;;;;;;;;;;10.40;99.90;;;;;;5044045;28;1399;-76
2023/01/08 10:27:49;;;;;;;;;;;10.40;99.90;;;;;;5048143;28;1599;-76
2023/01/08 10:30:18;;;;;;;;;;;10.40;99.90;;;;;;5047744;28;1124;-77
2023/01/08 10:32:51;;;;;;;;;;;10.30;99.90;;;;;;5049464;28;1229;-76
2023/01/08 10:35:22;;;;;;;;;;;10.30;99.90;;;;;;5044955;28;2315;-76
2023/01/08 10:37:51;;;;;;;;;;;10.00;99.90;;;;;;5054382;28;1726;-76
2023/01/08 10:40:22;;;;;;;;;;;10.40;99.90;;;;;;5049963;28;1757;-74
2023/01/08 10:42:55;;;;;;;;;;;10.30;99.90;;;;;;5054142;28;1942;-76
2023/01/08 10:45:23;;;;;;;;;;;10.50;99.90;;;;;;5045271;28;1405;-77
2023/01/08 10:47:52;;;;;;;;;;;10.50;99.90;;;;;;5030170;28;1255;-76
2023/01/08 10:50:24;;;;;;;;;;;10.60;99.90;;;;;;5032520;28;1032;-76
2023/01/08 10:52:54;;;;;;;;;;;10.60;99.90;;;;;;5021147;28;1164;-77
2023/01/08 10:55:23;;;;;;;;;;;10.60;99.90;;;;;;5028396;28;1391;-79
2023/01/08 10:57:55;;;;;;;;;;;10.60;99.90;;;;;;5033620;28;1104;-77
2023/01/08 11:00:24;;;;;;;;;;;10.50;99.90;;;;;;5028669;28;1052;-78
2023/01/08 11:02:51;;;;;;;;;;;10.50;99.90;;;;;;5030250;28;1887;-78
2023/01/08 11:05:19;;;;;;;;;;;10.50;99.90;;;;;;5028520;28;1402;-78
2023/01/08 11:07:48;;;;;;;;;;;10.50;99.90;;;;;;5032959;28;1520;-78
2023/01/08 11:10:24;;;;;;;;;;;10.50;99.90;;;;;;5023489;28;1040;-77
2023/01/08 11:12:56;;;;;;;;;;;10.60;99.90;;;;;;5038197;28;1109;-77
2023/01/08 11:15:29;;;;;;;;;;;10.60;99.90;;;;;;5048920;28;1271;-78
2023/01/08 11:18:04;;;;;;;;;;;10.50;99.90;;;;;;5034531;28;2011;-77
2023/01/08 11:20:33;;;;;;;;;;;10.40;99.90;;;;;;5042752;28;1879;-77
2023/01/08 11:23:04;;;;;;;;;;;10.50;99.90;;;;;;5031524;28;1891;-76
2023/01/08 11:25:34;;;;;;;;;;;10.40;99.90;;;;;;5027678;28;1755;-76
2023/01/08 11:28:04;;;;;;;;;;;10.40;99.90;;;;;;5016673;28;1189;-76
2023/01/08 11:30:34;;;;;;;;;;;10.50;99.90;;;;;;5027922;28;1120;-77
2023/01/08 11:33:04;;;;;;;;;;;10.50;99.90;;;;;;5028161;28;1073;-77
2023/01/08 11:35:34;;;;;;;;;;;10.50;99.90;;;;;;5025110;28;1252;-76
2023/01/08 11:38:02;;;;;;;;;;;10.60;99.90;;;;;;5028415;28;997;-76
2023/01/08 11:40:33;;;;;;;;;;;10.80;99.90;;;;;;5029184;28;1033;-78
2023/01/08 11:43:11;;;;;;;;;;;10.80;99.90;;;;;;5025275;28;1973;-76
2023/01/08 11:45:48;;;;;;;;;;;10.80;99.90;;;;;;5026091;28;1411;-77
2023/01/08 11:48:25;;;;;;;;;;;10.80;99.90;;;;;;5027641;28;1068;-78
2023/01/08 11:50:59;;;;;;;;;;;10.80;99.90;;;;;;5032677;28;1492;-78
2023/01/08 11:53:30;;;;;;;;;;;11.00;99.90;;;;;;5044450;28;1566;-79
2023/01/08 11:56:03;;;;;;;;;;;10.90;99.90;;;;;;5031289;28;1009;-78
2023/01/08 11:58:42;;;;;;;;;;;10.80;99.90;;;;;;5022879;28;1070;-82
2023/01/08 12:01:15;;;;;;;;;;;10.90;99.90;;;;;;5031344;28;1731;-82
2023/01/08 12:03:46;;;;;;;;;;;10.90;99.90;;;;;;5032237;28;1433;-82
2023/01/08 12:06:21;;;;;;;;;;;10.80;99.90;;;;;;5045687;28;1501;-83
2023/01/08 12:08:54;;;;;;;;;;;10.80;99.90;;;;;;5046568;28;1211;-82
2023/01/08 12:11:24;;;;;;;;;;;10.80;99.90;;;;;;5039428;28;1570;-83
2023/01/08 12:14:03;;;;;;;;;;;10.70;99.90;;;;;;5037335;28;1508;-81
2023/01/08 12:16:43;;;;;;;;;;;10.70;99.90;;;;;;5037783;28;1504;-82
2023/01/08 12:19:18;;;;;;;;;;;10.70;99.90;;;;;;5033713;28;1547;-82
2023/01/08 12:21:53;;;;;;;;;;;10.70;99.90;;;;;;5034751;28;1914;-82
2023/01/08 12:24:25;;;;;;;;;;;10.70;99.90;;;;;;5031810;28;1736;-82
2023/01/08 12:26:59;;;;;;;;;;;10.60;99.90;;;;;;5032013;28;1719;-81
2023/01/08 12:29:39;;;;;;;;;;;10.60;99.90;;;;;;5033852;28;1757;-83
2023/01/08 12:32:16;;;;;;;;;;;10.70;99.90;;;;;;5024016;28;1100;-82
2023/01/08 12:34:51;;;;;;;;;;;10.70;99.90;;;;;;5031942;28;1660;-82
2023/01/08 12:37:21;;;;;;;;;;;10.70;99.90;;;;;;5036105;28;1600;-81
2023/01/08 12:39:55;;;;;;;;;;;10.60;99.90;;;;;;5037179;28;1263;-81
2023/01/08 12:42:28;;;;;;;;;;;10.70;99.90;;;;;;5026269;28;1914;-81
2023/01/08 12:44:59;;;;;;;;;;;10.70;99.90;;;;;;5039948;28;1355;-81
2023/01/08 12:47:29;;;;;;;;;;;10.70;99.90;;;;;;5044045;28;998;-80
2023/01/08 12:50:01;;;;;;;;;;;10.70;99.90;;;;;;5042092;28;1081;-81
2023/01/08 12:52:35;;;;;;;;;;;10.70;99.90;;;;;;5043169;28;1711;-82
2023/01/08 12:55:06;;;;;;;;;;;10.70;99.90;;;;;;5038636;28;1311;-81
2023/01/08 12:57:37;;;;;;;;;;;10.80;99.90;;;;;;5027647;28;1489;-81
2023/01/08 13:00:10;;;;;;;;;;;10.80;99.90;;;;;;5034001;28;1096;-82
2023/01/08 13:02:52;;;;;;;;;;;10.80;99.90;;;;;;5024938;28;1926;-80
2023/01/08 13:05:30;;;;;;;;;;;10.90;99.90;;;;;;5032463;28;1479;-81
2023/01/08 13:07:59;;;;;;;;;;;11.10;99.90;;;;;;5037228;28;1746;-80
2023/01/08 13:10:33;;;;;;;;;;;11.10;99.90;;;;;;5038953;28;1553;-80
2023/01/08 13:13:02;;;;;;;;;;;11.30;99.90;;;;;;5043163;28;1147;-81
2023/01/08 13:15:31;;;;;;;;;;;11.20;99.90;;;;;;5046310;28;1360;-80
2023/01/08 13:18:04;;;;;;;;;;;11.30;99.90;;;;;;5042722;28;1430;-82
2023/01/08 13:20:32;;;;;;;;;;;11.30;99.90;;;;;;5040934;28;1162;-80
2023/01/08 13:23:01;;;;;;;;;;;11.30;99.90;;;;;;5038057;28;1970;-80
2023/01/08 13:25:30;;;;;;;;;;;11.20;99.90;;;;;;5028996;28;1381;-79
2023/01/08 13:27:58;;;;;;;;;;;11.10;99.90;;;;;;5033814;28;1392;-80
2023/01/08 13:30:35;;;;;;;;;;;11.10;99.90;;;;;;5038330;28;1140;-80
2023/01/08 13:33:04;;;;;;;;;;;11.00;99.90;;;;;;5037100;28;1461;-80
2023/01/08 13:35:31;;;;;;;;;;;11.00;99.90;;;;;;5038031;28;1416;-80
2023/01/08 13:38:12;;;;;;;;;;;10.90;99.90;;;;;;5037700;28;1433;-82
2023/01/08 13:40:56;;;;;;;;;;;10.80;99.90;;;;;;5037422;28;1523;-80
2023/01/08 13:43:26;;;;;;;;;;;10.70;99.90;;;;;;5040253;28;1975;-82
2023/01/08 13:46:05;;;;;;;;;;;10.70;99.90;;;;;;5037813;28;1353;-80
2023/01/08 13:48:37;;;;;;;;;;;10.90;99.90;;;;;;5040369;28;1571;-83
2023/01/08 13:51:05;;;;;;;;;;;10.60;99.90;;;;;;5039882;28;1649;-81
2023/01/08 13:53:33;;;;;;;;;;;10.50;99.90;;;;;;5037675;28;1650;-81
2023/01/08 13:56:02;;;;;;;;;;;10.40;99.90;;;;;;5037600;28;1273;-81
2023/01/08 13:58:33;;;;;;;;;;;10.50;99.90;;;;;;5039951;28;1069;-80
2023/01/08 14:01:03;;;;;;;;;;;10.50;99.90;;;;;;5038772;28;993;-79
2023/01/08 14:03:31;;;;;;;;;;;10.50;99.90;;;;;;5034754;28;1997;-83
2023/01/08 14:06:05;;;;;;;;;;;10.40;99.90;;;;;;5035088;28;1523;-77
2023/01/08 14:08:33;;;;;;;;;;;10.40;99.90;;;;;;5034703;28;1083;-78
2023/01/08 14:11:02;;;;;;;;;;;10.30;99.90;;;;;;5030177;28;1255;-76
2023/01/08 14:13:33;;;;;;;;;;;10.30;99.90;;;;;;5031725;28;1504;-77
2023/01/08 14:16:02;;;;;;;;;;;10.30;99.90;;;;;;5033824;28;1232;-78
2023/01/08 14:18:31;;;;;;;;;;;10.30;99.90;;;;;;5038791;28;1591;-76
2023/01/08 14:20:59;;;;;;;;;;;10.30;99.90;;;;;;5037123;28;1862;-78
2023/01/08 14:23:30;;;;;;;;;;;10.30;99.90;;;;;;5037133;28;1902;-77
2023/01/08 14:25:59;;;;;;;;;;;10.30;99.90;;;;;;5034460;28;1033;-79
2023/01/08 14:28:27;;;;;;;;;;;10.20;99.90;;;;;;5039529;28;1368;-81
2023/01/08 14:30:56;;;;;;;;;;;10.10;99.90;;;;;;5036877;28;1025;-80
2023/01/08 14:33:25;;;;;;;;;;;10.10;99.90;;;;;;5041134;28;1040;-79
2023/01/08 14:35:55;;;;;;;;;;;10.10;99.90;;;;;;5035910;28;1699;-79
2023/01/08 14:38:23;;;;;;;;;;;10.00;99.90;;;;;;5048419;28;1349;-81
2023/01/08 14:40:58;;;;;;;;;;;10.00;99.90;;;;;;5040410;28;1180;-79
2023/01/08 14:43:26;;;;;;;;;;;9.90;99.90;;;;;;5042364;28;1905;-80
2023/01/08 14:45:54;;;;;;;;;;;9.80;99.90;;;;;;5040811;28;1361;-81
2023/01/08 14:48:24;;;;;;;;;;;9.80;99.90;;;;;;5043727;28;1698;-81
2023/01/08 14:50:58;;;;;;;;;;;9.80;99.90;;;;;;5043358;28;1168;-80